This is the latest recevied weather packets stored in our database for station/object T77NM. If no packets are shown the sender has not sent any weather packets the latest 10 day(s).
| Time | Temp. | Humidity | Pressure | Rain* | Wind** | Luminosity | Snow |
|---|---|---|---|---|---|---|---|
| 1777684522 | 11.67° C | 37% | 1026.5 hPa | 0 mm | - | 0 W/m² | - |
| 1777683615 | 11.67° C | 36% | 1026.6 hPa | 0 mm | - | 0 W/m² | - |
| 1777677307 | 11.67° C | 37% | 1027 hPa | 0 mm | - | 0 W/m² | - |
| 1777674603 | 12.22° C | 37% | 1026.7 hPa | 0 mm | - | 0 W/m² | - |
| 1777672898 | 12.22° C | 37% | 1026.7 hPa | 0 mm | - | 0 W/m² | - |
| 1777656665 | 13.33° C | 36% | 1025.7 hPa | 0 mm | - | 70 W/m² | - |
| 1777655754 | 14.44° C | 35% | 1025.6 hPa | 0 mm | - | 116 W/m² | - |
| 1777653054 | 14.44° C | 34% | 1025.6 hPa | 0 mm | - | 316 W/m² | - |
| 1777651268 | 14.44° C | 35% | 1025.8 hPa | 0 mm | - | 429 W/m² | - |
| 1777646751 | 13.89° C | 35% | 1026.2 hPa | 0 mm | - | 668 W/m² | - |
| 1777645867 | 14.44° C | 32% | 1026.1 hPa | 0 mm | - | 717 W/m² | - |
| 1777644948 | 13.89° C | 33% | 1026.1 hPa | 0 mm | - | 763 W/m² | - |
| 1777639539 | 13.33° C | 40% | 1026.8 hPa | 0 mm | - | 949 W/m² | - |
| 1777634136 | 13.33° C | 42% | 1027.3 hPa | 0 mm | - | 1014 W/m² | - |
| 1777627823 | 12.78° C | 45% | 1027.7 hPa | 0 mm | - | 796 W/m² | - |
| 1777625117 | 12.78° C | 51% | 1027.5 hPa | 0 mm | - | 826 W/m² | - |
| 1777624223 | 12.22° C | 52% | 1027.4 hPa | 0 mm | - | 817 W/m² | - |
| 1777615235 | 8.89° C | 60% | 1026.4 hPa | 0 mm | - | 86 W/m² | - |
| 1777603516 | 8.33° C | 60% | 1025.4 hPa | 0 mm | - | 0 W/m² | - |
| 1777597210 | 8.33° C | 61% | 1025.6 hPa | 0 mm | - | 0 W/m² | - |
| 1777596314 | 8.89° C | 62% | 1025.7 hPa | 0 mm | - | 0 W/m² | - |
| 1777593609 | 8.89° C | 64% | 1025.7 hPa | 0 mm | - | 0 W/m² | - |
| 1777590902 | 8.89° C | 65% | 1025.5 hPa | 0 mm | - | 0 W/m² | - |
| 1777586450 | 9.44° C | 57% | 1025.3 hPa | 0 mm | - | 0 W/m² | - |
| 1777583747 | 9.44° C | 56% | 1024.9 hPa | 0 mm | - | 0 W/m² | - |
* Rain latest hour (hover to see other rain measurements)
** Current wind speed in m/s (hover to see current wind gust speed)